sensor_id;sensor_type;location;lat;lon;timestamp;temperature;humidity
30379;DHT22;17168;49.164;9.060;2023-05-16T00:01:28;14.50;99.90
30379;DHT22;17168;49.164;9.060;2023-05-16T00:04:01;14.50;99.90
30379;DHT22;17168;49.164;9.060;2023-05-16T00:06:35;14.50;99.90
30379;DHT22;17168;49.164;9.060;2023-05-16T00:09:07;14.50;99.90
30379;DHT22;17168;49.164;9.060;2023-05-16T00:11:39;14.50;99.90
30379;DHT22;17168;49.164;9.060;2023-05-16T00:14:11;14.60;99.90
30379;DHT22;17168;49.164;9.060;2023-05-16T00:16:46;14.60;99.90
30379;DHT22;17168;49.164;9.060;2023-05-16T00:19:18;14.60;99.90
30379;DHT22;17168;49.164;9.060;2023-05-16T00:21:51;14.60;99.90
30379;DHT22;17168;49.164;9.060;2023-05-16T00:24:23;14.60;99.90
30379;DHT22;17168;49.164;9.060;2023-05-16T00:26:56;14.60;99.90
30379;DHT22;17168;49.164;9.060;2023-05-16T00:29:28;14.50;99.90
30379;DHT22;17168;49.164;9.060;2023-05-16T00:32:03;14.50;99.90
30379;DHT22;17168;49.164;9.060;2023-05-16T00:34:35;14.40;99.90
30379;DHT22;17168;49.164;9.060;2023-05-16T00:37:07;14.40;99.90
30379;DHT22;17168;49.164;9.060;2023-05-16T00:39:39;14.40;99.90
30379;DHT22;17168;49.164;9.060;2023-05-16T00:42:11;14.40;99.90
30379;DHT22;17168;49.164;9.060;2023-05-16T00:44:43;14.30;99.90
30379;DHT22;17168;49.164;9.060;2023-05-16T00:47:18;14.30;99.90
30379;DHT22;17168;49.164;9.060;2023-05-16T00:49:51;14.30;99.90
30379;DHT22;17168;49.164;9.060;2023-05-16T00:52:23;14.30;99.90
30379;DHT22;17168;49.164;9.060;2023-05-16T00:54:56;14.20;99.90
30379;DHT22;17168;49.164;9.060;2023-05-16T00:57:28;14.20;99.90
30379;DHT22;17168;49.164;9.060;2023-05-16T01:00:01;14.20;99.90
30379;DHT22;17168;49.164;9.060;2023-05-16T01:02:36;14.20;99.90
30379;DHT22;17168;49.164;9.060;2023-05-16T01:05:09;14.20;99.90
30379;DHT22;17168;49.164;9.060;2023-05-16T01:07:41;14.20;99.90
30379;DHT22;17168;49.164;9.060;2023-05-16T01:10:13;14.20;99.90
30379;DHT22;17168;49.164;9.060;2023-05-16T01:12:53;14.20;99.90
30379;DHT22;17168;49.164;9.060;2023-05-16T01:15:31;14.30;99.90
30379;DHT22;17168;49.164;9.060;2023-05-16T01:18:15;14.30;99.90
30379;DHT22;17168;49.164;9.060;2023-05-16T01:20:55;14.30;99.90
30379;DHT22;17168;49.164;9.060;2023-05-16T01:23:45;14.30;99.90
30379;DHT22;17168;49.164;9.060;2023-05-16T01:26:25;14.30;99.90
30379;DHT22;17168;49.164;9.060;2023-05-16T01:28:57;14.30;99.90
30379;DHT22;17168;49.164;9.060;2023-05-16T01:31:30;14.30;99.90
30379;DHT22;17168;49.164;9.060;2023-05-16T01:34:03;14.30;99.90
30379;DHT22;17168;49.164;9.060;2023-05-16T01:36:41;14.30;99.90
30379;DHT22;17168;49.164;9.060;2023-05-16T01:39:19;14.30;99.90
30379;DHT22;17168;49.164;9.060;2023-05-16T01:42:02;14.30;99.90
30379;DHT22;17168;49.164;9.060;2023-05-16T01:47:24;14.30;99.90
30379;DHT22;17168;49.164;9.060;2023-05-16T01:50:05;14.20;99.90
30379;DHT22;17168;49.164;9.060;2023-05-16T01:52:44;14.30;99.90
30379;DHT22;17168;49.164;9.060;2023-05-16T01:55:20;14.20;99.90
30379;DHT22;17168;49.164;9.060;2023-05-16T01:57:58;14.20;99.90
30379;DHT22;17168;49.164;9.060;2023-05-16T02:00:31;14.20;99.90
30379;DHT22;17168;49.164;9.060;2023-05-16T02:03:03;14.20;99.90
30379;DHT22;17168;49.164;9.060;2023-05-16T02:05:36;14.20;99.90
30379;DHT22;17168;49.164;9.060;2023-05-16T02:08:08;14.20;99.90
30379;DHT22;17168;49.164;9.060;2023-05-16T02:10:40;14.10;99.90
30379;DHT22;17168;49.164;9.060;2023-05-16T02:13:15;14.10;99.90
30379;DHT22;17168;49.164;9.060;2023-05-16T02:15:47;14.10;99.90
30379;DHT22;17168;49.164;9.060;2023-05-16T02:18:19;14.00;99.90
30379;DHT22;17168;49.164;9.060;2023-05-16T02:20:51;14.00;99.90
30379;DHT22;17168;49.164;9.060;2023-05-16T02:23:23;14.00;99.90
30379;DHT22;17168;49.164;9.060;2023-05-16T02:25:56;14.00;99.90
30379;DHT22;17168;49.164;9.060;2023-05-16T02:28:30;14.00;99.90
30379;DHT22;17168;49.164;9.060;2023-05-16T02:31:02;14.00;99.90
30379;DHT22;17168;49.164;9.060;2023-05-16T02:33:35;14.00;99.90
30379;DHT22;17168;49.164;9.060;2023-05-16T02:36:08;13.90;99.90
30379;DHT22;17168;49.164;9.060;2023-05-16T02:38:40;13.90;99.90
30379;DHT22;17168;49.164;9.060;2023-05-16T02:41:12;14.00;99.90
30379;DHT22;17168;49.164;9.060;2023-05-16T02:43:47;14.00;99.90
30379;DHT22;17168;49.164;9.060;2023-05-16T02:46:21;14.00;99.90
30379;DHT22;17168;49.164;9.060;2023-05-16T02:48:54;14.00;99.90
30379;DHT22;17168;49.164;9.060;2023-05-16T02:51:27;13.90;99.90
30379;DHT22;17168;49.164;9.060;2023-05-16T02:53:59;13.90;99.90
30379;DHT22;17168;49.164;9.060;2023-05-16T02:56:31;13.90;99.90
30379;DHT22;17168;49.164;9.060;2023-05-16T02:59:06;13.90;99.90
30379;DHT22;17168;49.164;9.060;2023-05-16T03:01:42;13.90;99.90
30379;DHT22;17168;49.164;9.060;2023-05-16T03:04:14;13.90;99.90
30379;DHT22;17168;49.164;9.060;2023-05-16T03:06:46;13.80;99.90
30379;DHT22;17168;49.164;9.060;2023-05-16T03:09:18;13.80;99.90
30379;DHT22;17168;49.164;9.060;2023-05-16T03:11:51;13.80;99.90
30379;DHT22;17168;49.164;9.060;2023-05-16T03:14:25;13.70;99.90
30379;DHT22;17168;49.164;9.060;2023-05-16T03:17:00;13.70;99.90
30379;DHT22;17168;49.164;9.060;2023-05-16T03:19:33;13.70;99.90
30379;DHT22;17168;49.164;9.060;2023-05-16T03:22:05;13.70;99.90
30379;DHT22;17168;49.164;9.060;2023-05-16T03:24:37;13.70;99.90
30379;DHT22;17168;49.164;9.060;2023-05-16T03:27:09;13.70;99.90
30379;DHT22;17168;49.164;9.060;2023-05-16T03:29:44;13.70;99.90
30379;DHT22;17168;49.164;9.060;2023-05-16T03:32:16;13.70;99.90
30379;DHT22;17168;49.164;9.060;2023-05-16T03:34:48;13.70;99.90
30379;DHT22;17168;49.164;9.060;2023-05-16T03:37:20;13.60;99.90
30379;DHT22;17168;49.164;9.060;2023-05-16T03:39:53;13.60;99.90
30379;DHT22;17168;49.164;9.060;2023-05-16T03:42:25;13.60;99.90
30379;DHT22;17168;49.164;9.060;2023-05-16T03:44:59;13.60;99.90
30379;DHT22;17168;49.164;9.060;2023-05-16T03:47:32;13.60;99.90
30379;DHT22;17168;49.164;9.060;2023-05-16T03:50:06;13.60;99.90
30379;DHT22;17168;49.164;9.060;2023-05-16T03:52:38;13.60;99.90
30379;DHT22;17168;49.164;9.060;2023-05-16T03:55:10;13.60;99.90
30379;DHT22;17168;49.164;9.060;2023-05-16T03:57:45;13.60;99.90
30379;DHT22;17168;49.164;9.060;2023-05-16T04:00:21;13.60;99.90
30379;DHT22;17168;49.164;9.060;2023-05-16T04:02:53;13.60;99.90
30379;DHT22;17168;49.164;9.060;2023-05-16T04:05:25;13.60;99.90
30379;DHT22;17168;49.164;9.060;2023-05-16T04:07:58;13.60;99.90
30379;DHT22;17168;49.164;9.060;2023-05-16T04:10:30;13.70;99.90
30379;DHT22;17168;49.164;9.060;2023-05-16T04:13:02;13.70;99.90
30379;DHT22;17168;49.164;9.060;2023-05-16T04:15:37;13.70;99.90
30379;DHT22;17168;49.164;9.060;2023-05-16T04:18:09;13.70;99.90
30379;DHT22;17168;49.164;9.060;2023-05-16T04:20:42;13.70;99.90
30379;DHT22;17168;49.164;9.060;2023-05-16T04:23:14;13.70;99.90
30379;DHT22;17168;49.164;9.060;2023-05-16T04:25:46;13.70;99.90
30379;DHT22;17168;49.164;9.060;2023-05-16T04:28:18;13.70;99.90
30379;DHT22;17168;49.164;9.060;2023-05-16T04:30:53;13.70;99.90
30379;DHT22;17168;49.164;9.060;2023-05-16T04:33:25;13.70;99.90
30379;DHT22;17168;49.164;9.060;2023-05-16T04:35:57;13.70;99.90
30379;DHT22;17168;49.164;9.060;2023-05-16T04:38:30;13.60;99.90
30379;DHT22;17168;49.164;9.060;2023-05-16T04:41:02;13.70;99.90
30379;DHT22;17168;49.164;9.060;2023-05-16T04:43:34;13.60;99.90
30379;DHT22;17168;49.164;9.060;2023-05-16T04:46:09;13.60;99.90
30379;DHT22;17168;49.164;9.060;2023-05-16T04:48:42;13.60;99.90
30379;DHT22;17168;49.164;9.060;2023-05-16T04:51:14;13.60;99.90
30379;DHT22;17168;49.164;9.060;2023-05-16T04:53:47;13.60;99.90
30379;DHT22;17168;49.164;9.060;2023-05-16T04:56:19;13.60;99.90
30379;DHT22;17168;49.164;9.060;2023-05-16T04:58:51;13.60;99.90
30379;DHT22;17168;49.164;9.060;2023-05-16T05:01:26;13.60;99.90
30379;DHT22;17168;49.164;9.060;2023-05-16T05:03:58;13.50;99.90
30379;DHT22;17168;49.164;9.060;2023-05-16T05:06:30;13.50;99.90
30379;DHT22;17168;49.164;9.060;2023-05-16T05:09:03;13.60;99.90
30379;DHT22;17168;49.164;9.060;2023-05-16T05:11:43;13.60;99.90
30379;DHT22;17168;49.164;9.060;2023-05-16T05:14:15;13.60;99.90
30379;DHT22;17168;49.164;9.060;2023-05-16T05:16:56;13.60;99.90
30379;DHT22;17168;49.164;9.060;2023-05-16T05:19:28;13.60;99.90
30379;DHT22;17168;49.164;9.060;2023-05-16T05:22:00;13.50;99.90
30379;DHT22;17168;49.164;9.060;2023-05-16T05:24:38;13.50;99.90
30379;DHT22;17168;49.164;9.060;2023-05-16T05:27:41;13.50;99.90
30379;DHT22;17168;49.164;9.060;2023-05-16T05:30:13;13.50;99.90
30379;DHT22;17168;49.164;9.060;2023-05-16T05:33:05;13.50;99.90
30379;DHT22;17168;49.164;9.060;2023-05-16T05:35:43;13.50;99.90
30379;DHT22;17168;49.164;9.060;2023-05-16T05:38:15;13.50;99.90
30379;DHT22;17168;49.164;9.060;2023-05-16T05:40:47;13.50;99.90
30379;DHT22;17168;49.164;9.060;2023-05-16T05:43:20;13.50;99.90
30379;DHT22;17168;49.164;9.060;2023-05-16T05:45:54;13.50;99.90
30379;DHT22;17168;49.164;9.060;2023-05-16T05:48:29;13.50;99.90
30379;DHT22;17168;49.164;9.060;2023-05-16T05:51:01;13.50;99.90
30379;DHT22;17168;49.164;9.060;2023-05-16T05:53:33;13.50;99.90
30379;DHT22;17168;49.164;9.060;2023-05-16T05:56:06;13.50;99.90
30379;DHT22;17168;49.164;9.060;2023-05-16T05:58:38;13.50;99.90
30379;DHT22;17168;49.164;9.060;2023-05-16T06:01:13;13.50;99.90
30379;DHT22;17168;49.164;9.060;2023-05-16T06:03:48;13.50;99.90
30379;DHT22;17168;49.164;9.060;2023-05-16T06:06:20;13.50;99.90
30379;DHT22;17168;49.164;9.060;2023-05-16T06:08:52;13.40;99.90
30379;DHT22;17168;49.164;9.060;2023-05-16T06:11:26;13.40;99.90
30379;DHT22;17168;49.164;9.060;2023-05-16T06:13:58;13.40;99.90
30379;DHT22;17168;49.164;9.060;2023-05-16T06:16:30;13.40;99.90
30379;DHT22;17168;49.164;9.060;2023-05-16T06:19:05;13.40;99.90
30379;DHT22;17168;49.164;9.060;2023-05-16T06:21:41;13.40;99.90
30379;DHT22;17168;49.164;9.060;2023-05-16T06:24:13;13.40;99.90
30379;DHT22;17168;49.164;9.060;2023-05-16T06:26:45;13.50;99.90
30379;DHT22;17168;49.164;9.060;2023-05-16T06:29:24;13.40;99.90
30379;DHT22;17168;49.164;9.060;2023-05-16T06:31:56;13.50;99.90
30379;DHT22;17168;49.164;9.060;2023-05-16T06:34:31;13.50;99.90
30379;DHT22;17168;49.164;9.060;2023-05-16T06:37:04;13.50;99.90
30379;DHT22;17168;49.164;9.060;2023-05-16T06:39:36;13.50;99.90
30379;DHT22;17168;49.164;9.060;2023-05-16T06:42:08;13.50;99.90
30379;DHT22;17168;49.164;9.060;2023-05-16T06:44:41;13.50;99.90
30379;DHT22;17168;49.164;9.060;2023-05-16T06:47:15;13.50;99.90
30379;DHT22;17168;49.164;9.060;2023-05-16T06:49:50;13.50;99.90
30379;DHT22;17168;49.164;9.060;2023-05-16T06:52:24;13.50;99.90
30379;DHT22;17168;49.164;9.060;2023-05-16T06:54:56;13.40;99.90
30379;DHT22;17168;49.164;9.060;2023-05-16T06:57:28;13.40;99.90
30379;DHT22;17168;49.164;9.060;2023-05-16T07:00:01;13.40;99.90
30379;DHT22;17168;49.164;9.060;2023-05-16T07:02:33;13.40;99.90
30379;DHT22;17168;49.164;9.060;2023-05-16T07:05:08;13.40;99.90
30379;DHT22;17168;49.164;9.060;2023-05-16T07:07:41;13.40;99.90
30379;DHT22;17168;49.164;9.060;2023-05-16T07:10:13;13.40;99.90
30379;DHT22;17168;49.164;9.060;2023-05-16T07:12:47;13.40;99.90
30379;DHT22;17168;49.164;9.060;2023-05-16T07:15:22;13.40;99.90
30379;DHT22;17168;49.164;9.060;2023-05-16T07:17:55;13.40;99.90
30379;DHT22;17168;49.164;9.060;2023-05-16T07:20:30;13.40;99.90
30379;DHT22;17168;49.164;9.060;2023-05-16T07:23:03;13.40;99.90
30379;DHT22;17168;49.164;9.060;2023-05-16T07:25:35;13.40;99.90
30379;DHT22;17168;49.164;9.060;2023-05-16T07:28:08;13.50;99.90
30379;DHT22;17168;49.164;9.060;2023-05-16T07:30:40;13.50;99.90
30379;DHT22;17168;49.164;9.060;2023-05-16T07:33:12;13.50;99.90
30379;DHT22;17168;49.164;9.060;2023-05-16T07:35:51;13.50;99.90
30379;DHT22;17168;49.164;9.060;2023-05-16T07:38:39;13.50;99.90
30379;DHT22;17168;49.164;9.060;2023-05-16T07:41:12;13.50;99.90
30379;DHT22;17168;49.164;9.060;2023-05-16T07:43:44;13.60;99.90
30379;DHT22;17168;49.164;9.060;2023-05-16T07:46:17;13.60;99.90
30379;DHT22;17168;49.164;9.060;2023-05-16T07:48:52;13.60;99.90
30379;DHT22;17168;49.164;9.060;2023-05-16T07:51:30;13.70;99.90
30379;DHT22;17168;49.164;9.060;2023-05-16T07:54:03;13.70;99.90
30379;DHT22;17168;49.164;9.060;2023-05-16T07:56:35;13.70;99.90
30379;DHT22;17168;49.164;9.060;2023-05-16T07:59:10;13.70;99.90
30379;DHT22;17168;49.164;9.060;2023-05-16T08:01:42;13.70;99.90
30379;DHT22;17168;49.164;9.060;2023-05-16T08:04:15;13.80;99.90
30379;DHT22;17168;49.164;9.060;2023-05-16T08:06:49;13.80;99.90
30379;DHT22;17168;49.164;9.060;2023-05-16T08:09:24;13.80;99.90
30379;DHT22;17168;49.164;9.060;2023-05-16T08:11:57;13.80;99.90
30379;DHT22;17168;49.164;9.060;2023-05-16T08:14:37;13.90;99.90
30379;DHT22;17168;49.164;9.060;2023-05-16T08:17:09;13.90;99.90
30379;DHT22;17168;49.164;9.060;2023-05-16T08:19:42;14.00;99.90
30379;DHT22;17168;49.164;9.060;2023-05-16T08:22:17;14.00;99.90
30379;DHT22;17168;49.164;9.060;2023-05-16T08:24:52;14.00;99.90
30379;DHT22;17168;49.164;9.060;2023-05-16T08:27:31;14.10;99.90
30379;DHT22;17168;49.164;9.060;2023-05-16T08:30:05;14.10;99.90
30379;DHT22;17168;49.164;9.060;2023-05-16T08:32:38;14.20;99.90
30379;DHT22;17168;49.164;9.060;2023-05-16T08:35:10;14.20;99.90
30379;DHT22;17168;49.164;9.060;2023-05-16T08:37:46;14.20;99.90
30379;DHT22;17168;49.164;9.060;2023-05-16T08:40:18;14.20;99.90
30379;DHT22;17168;49.164;9.060;2023-05-16T08:42:51;14.20;99.90
30379;DHT22;17168;49.164;9.060;2023-05-16T08:45:24;14.30;99.90
30379;DHT22;17168;49.164;9.060;2023-05-16T08:48:00;14.30;99.90
30379;DHT22;17168;49.164;9.060;2023-05-16T08:50:34;14.40;99.90
30379;DHT22;17168;49.164;9.060;2023-05-16T08:53:11;14.40;99.90
30379;DHT22;17168;49.164;9.060;2023-05-16T08:55:47;14.50;99.90
30379;DHT22;17168;49.164;9.060;2023-05-16T08:58:26;14.50;99.90
30379;DHT22;17168;49.164;9.060;2023-05-16T09:01:04;14.60;99.90
30379;DHT22;17168;49.164;9.060;2023-05-16T09:03:40;14.60;99.90
30379;DHT22;17168;49.164;9.060;2023-05-16T09:06:17;14.60;99.90
30379;DHT22;17168;49.164;9.060;2023-05-16T09:08:52;14.70;99.90
30379;DHT22;17168;49.164;9.060;2023-05-16T09:11:28;14.80;99.90
30379;DHT22;17168;49.164;9.060;2023-05-16T09:14:01;14.80;99.90
30379;DHT22;17168;49.164;9.060;2023-05-16T09:16:33;14.90;99.90
30379;DHT22;17168;49.164;9.060;2023-05-16T09:19:05;15.00;99.90
30379;DHT22;17168;49.164;9.060;2023-05-16T09:21:57;15.00;99.90
30379;DHT22;17168;49.164;9.060;2023-05-16T09:24:37;15.10;99.90
30379;DHT22;17168;49.164;9.060;2023-05-16T09:27:11;15.20;99.90
30379;DHT22;17168;49.164;9.060;2023-05-16T09:29:49;15.30;99.90
30379;DHT22;17168;49.164;9.060;2023-05-16T09:32:23;15.40;99.90
30379;DHT22;17168;49.164;9.060;2023-05-16T09:34:55;15.40;99.90
30379;DHT22;17168;49.164;9.060;2023-05-16T09:37:29;15.50;99.90
30379;DHT22;17168;49.164;9.060;2023-05-16T09:40:08;15.50;99.90
30379;DHT22;17168;49.164;9.060;2023-05-16T09:42:44;15.50;99.90
30379;DHT22;17168;49.164;9.060;2023-05-16T09:45:16;15.60;99.90
30379;DHT22;17168;49.164;9.060;2023-05-16T09:48:00;15.50;99.90
30379;DHT22;17168;49.164;9.060;2023-05-16T09:50:37;15.60;99.90
30379;DHT22;17168;49.164;9.060;2023-05-16T09:53:12;15.60;99.90
30379;DHT22;17168;49.164;9.060;2023-05-16T09:55:47;15.50;99.90
30379;DHT22;17168;49.164;9.060;2023-05-16T09:58:29;15.40;99.90
30379;DHT22;17168;49.164;9.060;2023-05-16T10:01:02;15.40;99.90
30379;DHT22;17168;49.164;9.060;2023-05-16T10:03:38;15.30;99.90
30379;DHT22;17168;49.164;9.060;2023-05-16T10:06:12;15.20;99.90
30379;DHT22;17168;49.164;9.060;2023-05-16T10:08:45;15.20;99.90
30379;DHT22;17168;49.164;9.060;2023-05-16T10:11:21;15.20;99.90
30379;DHT22;17168;49.164;9.060;2023-05-16T10:13:54;15.10;99.90
30379;DHT22;17168;49.164;9.060;2023-05-16T10:16:27;15.10;99.90
30379;DHT22;17168;49.164;9.060;2023-05-16T10:18:59;15.00;99.90
30379;DHT22;17168;49.164;9.060;2023-05-16T10:21:32;14.90;99.90
30379;DHT22;17168;49.164;9.060;2023-05-16T10:24:07;14.90;99.90
30379;DHT22;17168;49.164;9.060;2023-05-16T10:26:43;14.90;99.90
30379;DHT22;17168;49.164;9.060;2023-05-16T10:29:22;14.80;99.90
30379;DHT22;17168;49.164;9.060;2023-05-16T10:31:55;14.80;99.90
30379;DHT22;17168;49.164;9.060;2023-05-16T10:34:44;14.80;99.90
30379;DHT22;17168;49.164;9.060;2023-05-16T10:37:17;14.80;99.90
30379;DHT22;17168;49.164;9.060;2023-05-16T10:39:56;14.80;99.90
30379;DHT22;17168;49.164;9.060;2023-05-16T10:42:33;14.90;99.90
30379;DHT22;17168;49.164;9.060;2023-05-16T10:45:15;14.90;99.90
30379;DHT22;17168;49.164;9.060;2023-05-16T10:47:55;14.90;99.90
30379;DHT22;17168;49.164;9.060;2023-05-16T10:50:35;15.00;99.90
30379;DHT22;17168;49.164;9.060;2023-05-16T10:53:15;15.00;99.90
30379;DHT22;17168;49.164;9.060;2023-05-16T10:56:03;15.10;99.90
30379;DHT22;17168;49.164;9.060;2023-05-16T10:58:43;15.10;99.90
30379;DHT22;17168;49.164;9.060;2023-05-16T11:01:20;15.10;99.90
30379;DHT22;17168;49.164;9.060;2023-05-16T11:04:04;15.20;99.90
30379;DHT22;17168;49.164;9.060;2023-05-16T11:06:45;15.30;99.90
30379;DHT22;17168;49.164;9.060;2023-05-16T11:09:21;15.30;99.90
30379;DHT22;17168;49.164;9.060;2023-05-16T11:11:58;15.30;99.90
30379;DHT22;17168;49.164;9.060;2023-05-16T11:14:42;15.30;99.40
30379;DHT22;17168;49.164;9.060;2023-05-16T11:17:21;15.40;98.70
30379;DHT22;17168;49.164;9.060;2023-05-16T11:19:55;15.40;97.90
30379;DHT22;17168;49.164;9.060;2023-05-16T11:22:32;15.40;97.60
30379;DHT22;17168;49.164;9.060;2023-05-16T11:25:05;15.40;97.20
30379;DHT22;17168;49.164;9.060;2023-05-16T11:27:42;15.40;97.00
30379;DHT22;17168;49.164;9.060;2023-05-16T11:30:19;15.40;96.50
30379;DHT22;17168;49.164;9.060;2023-05-16T11:32:54;15.40;96.00
30379;DHT22;17168;49.164;9.060;2023-05-16T11:35:27;15.50;96.20
30379;DHT22;17168;49.164;9.060;2023-05-16T11:38:00;15.50;95.70
30379;DHT22;17168;49.164;9.060;2023-05-16T11:40:32;15.40;95.00
30379;DHT22;17168;49.164;9.060;2023-05-16T11:43:05;15.40;94.50
30379;DHT22;17168;49.164;9.060;2023-05-16T11:45:41;15.40;94.10
30379;DHT22;17168;49.164;9.060;2023-05-16T11:48:14;15.30;93.20
30379;DHT22;17168;49.164;9.060;2023-05-16T11:50:59;15.20;92.80
30379;DHT22;17168;49.164;9.060;2023-05-16T11:53:41;15.10;92.70
30379;DHT22;17168;49.164;9.060;2023-05-16T11:56:16;15.10;92.80
30379;DHT22;17168;49.164;9.060;2023-05-16T11:58:48;15.00;92.20
30379;DHT22;17168;49.164;9.060;2023-05-16T12:01:30;15.00;92.30
30379;DHT22;17168;49.164;9.060;2023-05-16T12:04:17;15.00;92.40
30379;DHT22;17168;49.164;9.060;2023-05-16T12:07:01;15.00;92.50
30379;DHT22;17168;49.164;9.060;2023-05-16T12:09:41;15.00;92.00
30379;DHT22;17168;49.164;9.060;2023-05-16T12:12:14;15.00;92.30
30379;DHT22;17168;49.164;9.060;2023-05-16T12:14:46;15.10;92.30
30379;DHT22;17168;49.164;9.060;2023-05-16T12:17:21;15.10;92.00
30379;DHT22;17168;49.164;9.060;2023-05-16T12:19:53;15.20;91.60
30379;DHT22;17168;49.164;9.060;2023-05-16T12:22:27;15.30;91.30
30379;DHT22;17168;49.164;9.060;2023-05-16T12:25:20;15.40;90.70
30379;DHT22;17168;49.164;9.060;2023-05-16T12:27:53;15.50;90.60
30379;DHT22;17168;49.164;9.060;2023-05-16T12:30:27;15.50;90.10
30379;DHT22;17168;49.164;9.060;2023-05-16T12:33:06;15.50;89.80
30379;DHT22;17168;49.164;9.060;2023-05-16T12:35:40;15.60;89.20
30379;DHT22;17168;49.164;9.060;2023-05-16T12:38:14;15.60;88.40
30379;DHT22;17168;49.164;9.060;2023-05-16T12:40:56;15.70;88.70
30379;DHT22;17168;49.164;9.060;2023-05-16T12:43:28;15.80;88.50
30379;DHT22;17168;49.164;9.060;2023-05-16T12:46:00;15.80;87.50
30379;DHT22;17168;49.164;9.060;2023-05-16T12:48:40;15.90;87.70
30379;DHT22;17168;49.164;9.060;2023-05-16T12:51:15;16.00;85.10
30379;DHT22;17168;49.164;9.060;2023-05-16T12:53:48;16.00;84.70
30379;DHT22;17168;49.164;9.060;2023-05-16T12:56:42;16.00;83.90
30379;DHT22;17168;49.164;9.060;2023-05-16T12:59:15;16.00;83.70
30379;DHT22;17168;49.164;9.060;2023-05-16T13:01:47;16.10;82.90
30379;DHT22;17168;49.164;9.060;2023-05-16T13:04:25;16.10;81.00
30379;DHT22;17168;49.164;9.060;2023-05-16T13:06:58;16.10;81.50
30379;DHT22;17168;49.164;9.060;2023-05-16T13:09:31;16.20;81.30
30379;DHT22;17168;49.164;9.060;2023-05-16T13:12:07;16.20;80.60
30379;DHT22;17168;49.164;9.060;2023-05-16T13:14:39;16.30;80.40
30379;DHT22;17168;49.164;9.060;2023-05-16T13:17:23;16.30;80.70
30379;DHT22;17168;49.164;9.060;2023-05-16T13:19:58;16.30;80.00
30379;DHT22;17168;49.164;9.060;2023-05-16T13:22:31;16.40;77.80
30379;DHT22;17168;49.164;9.060;2023-05-16T13:25:04;16.40;77.50
30379;DHT22;17168;49.164;9.060;2023-05-16T13:27:41;16.40;77.50
30379;DHT22;17168;49.164;9.060;2023-05-16T13:30:14;16.50;77.10
30379;DHT22;17168;49.164;9.060;2023-05-16T13:32:46;16.50;75.40
30379;DHT22;17168;49.164;9.060;2023-05-16T13:35:22;16.60;74.70
30379;DHT22;17168;49.164;9.060;2023-05-16T13:37:57;16.70;74.20
30379;DHT22;17168;49.164;9.060;2023-05-16T13:40:29;16.80;74.40
30379;DHT22;17168;49.164;9.060;2023-05-16T13:43:01;17.10;73.70
30379;DHT22;17168;49.164;9.060;2023-05-16T13:45:34;17.30;72.20
30379;DHT22;17168;49.164;9.060;2023-05-16T13:48:06;17.30;71.60
30379;DHT22;17168;49.164;9.060;2023-05-16T13:50:44;17.50;70.90
30379;DHT22;17168;49.164;9.060;2023-05-16T13:53:22;17.80;71.40
30379;DHT22;17168;49.164;9.060;2023-05-16T13:55:56;18.00;69.00
30379;DHT22;17168;49.164;9.060;2023-05-16T13:58:28;18.10;69.10
30379;DHT22;17168;49.164;9.060;2023-05-16T14:01:01;18.30;68.40
30379;DHT22;17168;49.164;9.060;2023-05-16T14:03:33;18.40;67.10
30379;DHT22;17168;49.164;9.060;2023-05-16T14:06:13;18.50;67.40
30379;DHT22;17168;49.164;9.060;2023-05-16T14:08:48;18.60;65.70
30379;DHT22;17168;49.164;9.060;2023-05-16T14:11:22;18.70;63.90
30379;DHT22;17168;49.164;9.060;2023-05-16T14:14:03;18.70;63.20
30379;DHT22;17168;49.164;9.060;2023-05-16T14:16:35;18.60;63.30
30379;DHT22;17168;49.164;9.060;2023-05-16T14:19:14;18.50;63.50
30379;DHT22;17168;49.164;9.060;2023-05-16T14:21:57;18.50;64.30
30379;DHT22;17168;49.164;9.060;2023-05-16T14:24:29;18.40;63.50
30379;DHT22;17168;49.164;9.060;2023-05-16T14:27:02;18.20;64.00
30379;DHT22;17168;49.164;9.060;2023-05-16T14:29:40;18.00;64.10
30379;DHT22;17168;49.164;9.060;2023-05-16T14:32:12;17.90;65.20
30379;DHT22;17168;49.164;9.060;2023-05-16T14:34:45;17.80;64.40
30379;DHT22;17168;49.164;9.060;2023-05-16T14:37:20;17.70;64.50
30379;DHT22;17168;49.164;9.060;2023-05-16T14:39:55;17.70;65.40
30379;DHT22;17168;49.164;9.060;2023-05-16T14:42:29;17.60;66.00
30379;DHT22;17168;49.164;9.060;2023-05-16T14:45:05;17.60;66.10
30379;DHT22;17168;49.164;9.060;2023-05-16T14:47:37;17.50;66.40
30379;DHT22;17168;49.164;9.060;2023-05-16T14:50:10;17.50;66.50
30379;DHT22;17168;49.164;9.060;2023-05-16T14:52:46;17.40;66.50
30379;DHT22;17168;49.164;9.060;2023-05-16T14:55:19;17.40;66.00
30379;DHT22;17168;49.164;9.060;2023-05-16T14:57:51;17.30;65.90
30379;DHT22;17168;49.164;9.060;2023-05-16T15:00:30;17.30;65.20
30379;DHT22;17168;49.164;9.060;2023-05-16T15:03:03;17.10;64.60
30379;DHT22;17168;49.164;9.060;2023-05-16T15:05:35;17.10;65.20
30379;DHT22;17168;49.164;9.060;2023-05-16T15:08:10;17.10;65.30
30379;DHT22;17168;49.164;9.060;2023-05-16T15:10:43;17.10;65.00
30379;DHT22;17168;49.164;9.060;2023-05-16T15:13:15;17.10;64.40
30379;DHT22;17168;49.164;9.060;2023-05-16T15:15:47;17.10;64.20
30379;DHT22;17168;49.164;9.060;2023-05-16T15:18:20;17.10;64.40
30379;DHT22;17168;49.164;9.060;2023-05-16T15:20:52;17.10;64.80
30379;DHT22;17168;49.164;9.060;2023-05-16T15:23:27;17.20;64.60
30379;DHT22;17168;49.164;9.060;2023-05-16T15:25:59;17.20;64.70
30379;DHT22;17168;49.164;9.060;2023-05-16T15:28:31;17.20;64.50
30379;DHT22;17168;49.164;9.060;2023-05-16T15:31:04;17.30;63.90
30379;DHT22;17168;49.164;9.060;2023-05-16T15:33:36;17.30;63.90
30379;DHT22;17168;49.164;9.060;2023-05-16T15:36:09;17.40;63.40
30379;DHT22;17168;49.164;9.060;2023-05-16T15:38:44;17.50;63.00
30379;DHT22;17168;49.164;9.060;2023-05-16T15:41:17;17.50;62.20
30379;DHT22;17168;49.164;9.060;2023-05-16T15:44:09;17.50;62.00
30379;DHT22;17168;49.164;9.060;2023-05-16T15:46:41;17.60;62.10
30379;DHT22;17168;49.164;9.060;2023-05-16T15:49:14;17.60;62.80
30379;DHT22;17168;49.164;9.060;2023-05-16T15:51:46;17.70;62.90
30379;DHT22;17168;49.164;9.060;2023-05-16T15:54:21;17.80;62.70
30379;DHT22;17168;49.164;9.060;2023-05-16T15:56:53;17.80;61.20
30379;DHT22;17168;49.164;9.060;2023-05-16T15:59:25;17.80;60.40
30379;DHT22;17168;49.164;9.060;2023-05-16T16:01:57;17.80;60.40
30379;DHT22;17168;49.164;9.060;2023-05-16T16:04:30;17.70;59.90
30379;DHT22;17168;49.164;9.060;2023-05-16T16:07:02;17.70;59.50
30379;DHT22;17168;49.164;9.060;2023-05-16T16:09:37;17.70;60.10
30379;DHT22;17168;49.164;9.060;2023-05-16T16:12:09;17.70;60.60
30379;DHT22;17168;49.164;9.060;2023-05-16T16:14:42;17.70;60.60
30379;DHT22;17168;49.164;9.060;2023-05-16T16:17:14;17.70;60.00
30379;DHT22;17168;49.164;9.060;2023-05-16T16:19:47;17.80;59.60